createdAt,value
2019-02-14T00:00:33.232Z,14.47
2019-02-14T00:03:03.012Z,16.15
2019-02-14T00:05:29.997Z,13.32
2019-02-14T00:07:56.662Z,17.05
2019-02-14T00:10:23.542Z,19.15
2019-02-14T00:12:50.279Z,15.20
2019-02-14T00:15:17.438Z,15.45
2019-02-14T00:17:44.396Z,22.55
2019-02-14T00:20:11.270Z,13.93
2019-02-14T00:22:37.952Z,19.87
2019-02-14T00:25:07.501Z,18.52
2019-02-14T00:27:34.235Z,14.45
2019-02-14T00:30:01.305Z,12.25
2019-02-14T00:32:27.963Z,16.90
2019-02-14T00:34:55.218Z,12.40
2019-02-14T00:37:22.086Z,14.20
2019-02-14T00:39:49.042Z,10.13
2019-02-14T00:42:16.098Z,11.43
2019-02-14T00:44:43.002Z,12.20
2019-02-14T00:47:09.580Z,10.43
2019-02-14T00:49:36.678Z,10.08
2019-02-14T00:52:03.389Z,11.65
2019-02-14T00:54:30.548Z,12.70
2019-02-14T00:56:57.341Z,7.87
2019-02-14T00:59:24.478Z,11.53
2019-02-14T01:01:51.250Z,9.03
2019-02-14T01:04:18.417Z,9.03
2019-02-14T01:06:45.448Z,11.60
2019-02-14T01:09:15.433Z,11.43
2019-02-14T01:11:42.503Z,15.00
2019-02-14T01:14:09.244Z,13.75
2019-02-14T01:16:35.986Z,11.35
2019-02-14T01:19:02.983Z,10.95
2019-02-14T01:21:30.055Z,12.93
2019-02-14T01:23:56.836Z,12.63
2019-02-14T01:26:24.111Z,11.60
2019-02-14T01:28:50.856Z,9.70
2019-02-14T01:31:17.959Z,12.85
2019-02-14T01:33:45.004Z,11.38
2019-02-14T01:36:12.158Z,13.32
2019-02-14T01:38:39.342Z,10.30
2019-02-14T01:41:06.304Z,11.97
2019-02-14T01:43:33.276Z,10.70
2019-02-14T01:46:00.137Z,11.35
2019-02-14T01:48:27.200Z,14.43
2019-02-14T01:50:54.164Z,7.03
2019-02-14T01:53:20.988Z,10.82
2019-02-14T01:55:48.203Z,11.00
2019-02-14T01:58:15.184Z,9.03
2019-02-14T02:00:42.234Z,9.70
2019-02-14T02:03:09.033Z,4.83
2019-02-14T02:05:35.795Z,9.95
2019-02-14T02:08:02.736Z,12.63
2019-02-14T02:10:29.555Z,9.33
2019-02-14T02:12:56.173Z,9.95
2019-02-14T02:15:23.495Z,11.73
2019-02-14T02:17:50.494Z,12.13
2019-02-14T02:20:17.668Z,12.40
2019-02-14T02:22:44.434Z,10.13
2019-02-14T02:25:11.717Z,14.53
2019-02-14T02:27:38.591Z,16.73
2019-02-14T02:30:05.826Z,6.70
2019-02-14T02:32:32.588Z,8.20
2019-02-14T02:35:02.036Z,9.98
2019-02-14T02:37:28.970Z,9.05
2019-02-14T02:39:56.041Z,7.47
2019-02-14T02:42:22.729Z,8.13
2019-02-14T02:44:50.003Z,10.55
2019-02-14T02:47:16.826Z,9.65
2019-02-14T02:49:43.595Z,8.85
2019-02-14T02:52:10.380Z,11.70
2019-02-14T02:54:37.144Z,8.90
2019-02-14T02:57:04.102Z,12.18
2019-02-14T02:59:31.085Z,9.25
2019-02-14T03:01:58.255Z,10.30
2019-02-14T03:04:25.135Z,10.03
2019-02-14T03:06:52.223Z,8.10
2019-02-14T03:09:19.309Z,8.18
2019-02-14T03:11:46.341Z,10.88
2019-02-14T03:14:13.101Z,19.60
2019-02-14T03:16:40.189Z,15.05
2019-02-14T03:19:07.279Z,16.90
2019-02-14T03:21:34.398Z,20.43
2019-02-14T03:24:01.241Z,28.20
2019-02-14T03:26:28.451Z,28.70
2019-02-14T03:28:55.375Z,20.72
2019-02-14T03:31:22.475Z,19.85
2019-02-14T03:33:49.257Z,14.95
2019-02-14T03:36:19.266Z,13.98
2019-02-14T03:38:44.706Z,13.45
2019-02-14T03:41:11.878Z,14.95
2019-02-14T03:43:38.543Z,13.10
2019-02-14T03:46:05.627Z,14.25
2019-02-14T03:48:32.484Z,7.15
2019-02-14T03:50:59.913Z,7.78
2019-02-14T03:53:26.922Z,6.55
2019-02-14T03:55:54.108Z,7.05
2019-02-14T03:58:21.076Z,8.20
2019-02-14T04:00:48.341Z,6.12
2019-02-14T04:03:15.201Z,6.08
2019-02-14T04:05:44.824Z,5.92
2019-02-14T04:08:11.592Z,5.65
2019-02-14T04:10:38.351Z,10.43
2019-02-14T04:13:05.275Z,6.90
2019-02-14T04:15:32.501Z,5.20
2019-02-14T04:17:59.355Z,6.25
2019-02-14T04:20:26.300Z,5.42
2019-02-14T04:22:53.183Z,6.62
2019-02-14T04:25:20.352Z,8.83
2019-02-14T04:27:47.336Z,7.37
2019-02-14T04:30:14.393Z,9.18
2019-02-14T04:32:41.094Z,11.12
2019-02-14T04:35:08.016Z,7.83
2019-02-14T04:37:34.859Z,6.47
2019-02-14T04:40:07.980Z,8.30
2019-02-14T04:42:30.447Z,10.10
2019-02-14T04:44:57.418Z,8.98
2019-02-14T04:47:24.175Z,6.85
2019-02-14T04:49:51.365Z,6.65
2019-02-14T04:52:18.257Z,7.47
2019-02-14T04:54:45.192Z,4.65
2019-02-14T04:57:11.835Z,10.50
2019-02-14T04:59:38.713Z,8.55
2019-02-14T05:02:05.516Z,8.98
2019-02-14T05:04:32.536Z,12.30
2019-02-14T05:06:59.195Z,14.55
2019-02-14T05:09:25.900Z,17.73
2019-02-14T05:11:52.935Z,16.97
2019-02-14T05:14:20.180Z,15.63
2019-02-14T05:16:46.973Z,15.03
2019-02-14T05:19:14.054Z,13.88
2019-02-14T05:21:40.899Z,13.45
2019-02-14T05:24:08.082Z,19.12
2019-02-14T05:26:34.637Z,8.90
2019-02-14T05:29:01.580Z,12.88
2019-02-14T05:31:28.373Z,7.10
2019-02-14T05:33:55.434Z,4.85
2019-02-14T05:36:22.600Z,4.75
2019-02-14T05:38:49.474Z,7.70
2019-02-14T05:41:16.517Z,5.60
2019-02-14T05:43:43.193Z,6.25
2019-02-14T05:46:10.262Z,10.08
2019-02-14T05:48:37.126Z,8.13
2019-02-14T05:51:04.205Z,10.10
2019-02-14T05:53:30.907Z,8.98
2019-02-14T05:55:58.021Z,10.38
2019-02-14T05:58:25.012Z,8.85
2019-02-14T06:00:52.273Z,7.05
2019-02-14T06:03:19.143Z,16.32
2019-02-14T06:05:46.634Z,8.65
2019-02-14T06:08:13.895Z,10.93
2019-02-14T06:10:40.752Z,9.95
2019-02-14T06:13:07.733Z,6.05
2019-02-14T06:15:34.693Z,8.70
2019-02-14T06:18:01.655Z,7.95
2019-02-14T06:20:28.634Z,9.60
2019-02-14T06:22:55.493Z,10.40
2019-02-14T06:25:22.364Z,5.67
2019-02-14T06:27:49.418Z,7.78
2019-02-14T06:30:16.307Z,6.97
2019-02-14T06:32:43.076Z,6.62
2019-02-14T06:35:12.742Z,10.08
2019-02-14T06:37:39.544Z,10.65
2019-02-14T06:40:06.411Z,12.63
2019-02-14T06:42:33.333Z,9.93
2019-02-14T06:45:00.304Z,11.20
2019-02-14T06:47:27.724Z,10.75
2019-02-14T06:49:54.697Z,14.85
2019-02-14T06:52:32.120Z,9.60
2019-02-14T06:54:50.663Z,11.70
2019-02-14T06:57:17.620Z,10.75
2019-02-14T06:59:44.575Z,15.43
2019-02-14T07:02:11.375Z,11.43
2019-02-14T07:04:38.532Z,11.25
2019-02-14T07:07:05.549Z,10.98
2019-02-14T07:09:32.578Z,15.60
2019-02-14T07:11:59.530Z,14.43
2019-02-14T07:14:35.308Z,12.73
2019-02-14T07:17:01.865Z,14.20
2019-02-14T07:19:29.031Z,18.02
2019-02-14T07:21:58.819Z,12.30
2019-02-14T07:24:25.761Z,10.48
2019-02-14T07:26:54.838Z,8.18
2019-02-14T07:29:21.486Z,8.68
2019-02-14T07:31:48.355Z,7.25
2019-02-14T07:34:15.229Z,8.08
2019-02-14T07:36:42.403Z,8.33
2019-02-14T07:39:09.065Z,10.30
2019-02-14T07:41:36.235Z,8.63
2019-02-14T07:44:03.101Z,9.50
2019-02-14T07:46:30.376Z,7.85
2019-02-14T07:48:59.990Z,10.72
2019-02-14T07:51:27.048Z,10.40
2019-02-14T07:53:53.835Z,6.25
2019-02-14T07:56:20.904Z,10.98
2019-02-14T07:58:47.844Z,9.40
2019-02-14T08:01:14.707Z,8.15
2019-02-14T08:03:41.490Z,10.75
2019-02-14T08:06:08.473Z,7.83
2019-02-14T08:08:35.293Z,12.55
2019-02-14T08:11:02.502Z,9.55
2019-02-14T08:13:29.360Z,11.73
2019-02-14T08:15:56.334Z,6.75
2019-02-14T08:18:23.182Z,5.30
2019-02-14T08:20:50.060Z,8.68
2019-02-14T08:23:16.865Z,7.75
2019-02-14T08:25:43.669Z,7.95
2019-02-14T08:28:10.458Z,7.70
2019-02-14T08:30:37.314Z,7.70
2019-02-14T08:33:07.040Z,7.00
2019-02-14T08:35:33.910Z,12.68
2019-02-14T08:38:00.612Z,6.45
2019-02-14T08:40:27.539Z,6.08
2019-02-14T08:42:54.090Z,8.33
2019-02-14T08:45:21.309Z,6.87
2019-02-14T08:47:47.930Z,5.85
2019-02-14T08:50:15.069Z,5.53
2019-02-14T08:52:41.743Z,7.55
2019-02-14T08:55:09.972Z,7.05
2019-02-14T08:57:37.028Z,6.80
2019-02-14T09:00:03.983Z,13.00
2019-02-14T09:02:30.848Z,7.33
2019-02-14T09:04:57.687Z,7.37
2019-02-14T09:07:24.879Z,14.10
2019-02-14T09:09:51.560Z,8.70
2019-02-14T09:12:18.521Z,6.50
2019-02-14T09:14:45.340Z,8.43
2019-02-14T09:17:13.582Z,8.27
2019-02-14T09:19:40.429Z,7.20
2019-02-14T09:22:07.291Z,6.50
2019-02-14T09:24:34.126Z,5.60
2019-02-14T09:27:00.822Z,7.12
2019-02-14T09:29:27.606Z,11.57
2019-02-14T09:31:54.752Z,8.65
2019-02-14T09:34:21.449Z,13.95
2019-02-14T09:36:48.347Z,7.10
2019-02-14T09:39:15.249Z,7.85
2019-02-14T09:41:42.467Z,5.65
2019-02-14T09:44:09.298Z,6.70
2019-02-14T09:46:36.038Z,8.43
2019-02-14T09:49:02.843Z,6.05
2019-02-14T09:51:29.652Z,7.55
2019-02-14T09:53:56.441Z,11.53
2019-02-14T09:56:23.481Z,7.62
2019-02-14T09:58:50.081Z,6.12
2019-02-14T10:01:16.820Z,5.22
2019-02-14T10:03:43.502Z,10.30
2019-02-14T10:06:10.470Z,6.22
2019-02-14T10:08:37.974Z,6.80
2019-02-14T10:11:04.925Z,7.55
2019-02-14T10:13:31.478Z,8.73
2019-02-14T10:15:58.018Z,12.53
2019-02-14T10:18:24.560Z,7.67
2019-02-14T10:20:51.199Z,6.75
2019-02-14T10:23:18.086Z,7.12
2019-02-14T10:25:44.888Z,7.75
2019-02-14T10:28:11.410Z,7.00
2019-02-14T10:30:40.096Z,6.60
2019-02-14T10:33:06.293Z,8.48
2019-02-14T10:35:32.797Z,7.58
2019-02-14T10:37:59.405Z,13.50
2019-02-14T10:40:26.005Z,8.68
2019-02-14T10:42:52.701Z,12.58
2019-02-14T10:45:19.200Z,10.05
2019-02-14T10:47:45.799Z,8.40
2019-02-14T10:50:12.340Z,9.90
2019-02-14T10:52:38.917Z,10.32
2019-02-14T10:55:05.437Z,5.70
2019-02-14T10:57:31.972Z,9.38
2019-02-14T10:59:58.555Z,8.95
2019-02-14T11:02:25.157Z,7.83
2019-02-14T11:04:51.795Z,6.65
2019-02-14T11:07:18.603Z,10.90
2019-02-14T11:09:45.275Z,11.65
2019-02-14T11:12:12.032Z,7.17
2019-02-14T11:14:38.691Z,8.40
2019-02-14T11:17:05.390Z,4.35
2019-02-14T11:19:32.090Z,7.25
2019-02-14T11:21:58.750Z,6.40
2019-02-14T11:24:25.272Z,7.33
2019-02-14T11:26:52.050Z,6.75
2019-02-14T11:29:18.769Z,6.90
2019-02-14T11:31:45.610Z,6.72
2019-02-14T11:34:12.204Z,6.97
2019-02-14T11:36:38.836Z,6.60
2019-02-14T11:39:05.528Z,10.80
2019-02-14T11:41:32.260Z,6.85
2019-02-14T11:43:59.082Z,13.10
2019-02-14T11:46:26.098Z,11.50
2019-02-14T11:48:52.881Z,9.00
2019-02-14T11:51:19.753Z,11.70
2019-02-14T11:53:46.350Z,10.13
2019-02-14T11:56:12.870Z,13.43
2019-02-14T11:58:39.591Z,10.82
2019-02-14T12:01:06.250Z,10.80
2019-02-14T12:03:33.136Z,11.33
2019-02-14T12:05:59.696Z,10.05
2019-02-14T12:08:26.590Z,11.00
2019-02-14T12:10:53.212Z,12.13
2019-02-14T12:13:19.966Z,12.70
2019-02-14T12:15:46.736Z,13.90
2019-02-14T12:18:13.634Z,11.35
2019-02-14T12:20:40.248Z,18.65
2019-02-14T12:23:07.109Z,10.60
2019-02-14T12:25:33.994Z,14.35
2019-02-14T12:28:01.048Z,17.87
2019-02-14T12:30:27.812Z,11.10
2019-02-14T12:32:55.604Z,10.25
2019-02-14T12:35:22.379Z,9.53
2019-02-14T12:37:49.337Z,18.07
2019-02-14T12:40:16.105Z,9.23
2019-02-14T12:42:42.961Z,9.18
2019-02-14T12:45:09.828Z,14.68
2019-02-14T12:47:36.596Z,10.80
2019-02-14T12:50:03.340Z,12.80
2019-02-14T12:52:30.103Z,9.78
2019-02-14T12:54:56.680Z,9.10
2019-02-14T12:57:23.844Z,18.87
2019-02-14T12:59:50.584Z,11.40
2019-02-14T13:02:17.370Z,10.25
2019-02-14T13:04:44.305Z,12.10
2019-02-14T13:07:11.198Z,12.70
2019-02-14T13:09:38.033Z,12.53
2019-02-14T13:12:04.711Z,22.20
2019-02-14T13:14:31.439Z,10.93
2019-02-14T13:16:58.119Z,16.42
2019-02-14T13:19:24.690Z,15.03
2019-02-14T13:21:51.242Z,10.90
2019-02-14T13:24:18.055Z,9.58
2019-02-14T13:26:44.690Z,8.75
2019-02-14T13:29:11.511Z,8.70
2019-02-14T13:31:38.385Z,16.52
2019-02-14T13:34:05.086Z,12.18
2019-02-14T13:36:32.046Z,9.80
2019-02-14T13:38:58.946Z,8.75
2019-02-14T13:41:31.167Z,12.53
2019-02-14T13:43:54.168Z,13.15
2019-02-14T13:46:21.023Z,15.63
2019-02-14T13:48:47.908Z,12.50
2019-02-14T13:51:14.759Z,11.20
2019-02-14T13:53:41.739Z,11.65
2019-02-14T13:56:08.699Z,11.88
2019-02-14T13:58:35.607Z,14.95
2019-02-14T14:01:03.378Z,12.95
2019-02-14T14:03:30.313Z,13.03
2019-02-14T14:05:56.929Z,13.18
2019-02-14T14:08:23.734Z,10.05
2019-02-14T14:10:50.295Z,6.80
2019-02-14T14:13:17.095Z,9.43
2019-02-14T14:15:43.755Z,7.03
2019-02-14T14:18:10.765Z,8.40
2019-02-14T14:20:37.478Z,11.45
2019-02-14T14:23:04.415Z,11.15
2019-02-14T14:25:31.519Z,7.70
2019-02-14T14:27:58.141Z,7.12
2019-02-14T14:30:24.828Z,7.65
2019-02-14T14:32:51.588Z,10.00
2019-02-14T14:35:18.320Z,9.28
2019-02-14T14:37:45.001Z,14.43
2019-02-14T14:40:11.888Z,11.08
2019-02-14T14:42:38.624Z,5.20
2019-02-14T14:45:05.279Z,9.75
2019-02-14T14:47:32.057Z,9.50
2019-02-14T14:49:58.819Z,6.17
2019-02-14T14:52:25.364Z,14.00
2019-02-14T14:54:52.440Z,6.30
2019-02-14T14:57:19.083Z,13.25
2019-02-14T14:59:45.807Z,6.47
2019-02-14T15:02:12.409Z,9.20
2019-02-14T15:04:39.102Z,7.42
2019-02-14T15:07:05.823Z,5.95
2019-02-14T15:09:32.520Z,7.03
2019-02-14T15:11:59.167Z,9.85
2019-02-14T15:14:25.927Z,8.00
2019-02-14T15:16:52.796Z,6.62
2019-02-14T15:19:19.457Z,6.40
2019-02-14T15:21:46.326Z,4.60
2019-02-14T15:24:12.977Z,6.97
2019-02-14T15:26:39.947Z,6.58
2019-02-14T15:29:06.594Z,8.40
2019-02-14T15:31:33.357Z,8.58
2019-02-14T15:34:00.268Z,8.58
2019-02-14T15:36:28.269Z,7.00
2019-02-14T15:38:54.863Z,9.30
2019-02-14T15:41:21.430Z,12.68
2019-02-14T15:43:47.958Z,8.50
2019-02-14T15:46:14.494Z,7.20
2019-02-14T15:48:41.086Z,9.78
2019-02-14T15:51:07.568Z,10.25
2019-02-14T15:53:34.088Z,12.28
2019-02-14T15:56:00.539Z,17.05
2019-02-14T15:58:28.567Z,18.10
2019-02-14T16:00:55.336Z,11.15
2019-02-14T16:03:21.777Z,12.47
2019-02-14T16:05:48.335Z,8.13
2019-02-14T16:08:14.833Z,12.90
2019-02-14T16:10:41.352Z,10.00
2019-02-14T16:13:09.798Z,14.28
2019-02-14T16:15:36.160Z,12.37
2019-02-14T16:18:02.664Z,10.28
2019-02-14T16:20:29.092Z,7.37
2019-02-14T16:22:55.575Z,14.25
2019-02-14T16:25:22.162Z,13.88
2019-02-14T16:27:50.449Z,8.85
2019-02-14T16:30:17.207Z,9.78
2019-02-14T16:32:44.069Z,9.13
2019-02-14T16:35:10.799Z,13.08
2019-02-14T16:37:37.591Z,11.03
2019-02-14T16:40:04.229Z,10.63
2019-02-14T16:42:30.964Z,10.95
2019-02-14T16:44:57.655Z,16.00
2019-02-14T16:47:24.220Z,18.20
2019-02-14T16:49:50.992Z,16.35
2019-02-14T16:52:17.633Z,18.60
2019-02-14T16:54:50.591Z,13.55
2019-02-14T16:57:13.426Z,14.65
2019-02-14T16:59:40.288Z,16.57
2019-02-14T17:02:06.937Z,15.00
2019-02-14T17:04:33.714Z,13.90
2019-02-14T17:07:00.377Z,17.15
2019-02-14T17:09:27.108Z,13.78
2019-02-14T17:11:53.891Z,11.15
2019-02-14T17:14:20.771Z,11.65
2019-02-14T17:16:47.660Z,14.65
2019-02-14T17:19:14.772Z,14.98
2019-02-14T17:21:41.568Z,10.60
2019-02-14T17:24:08.315Z,17.60
2019-02-14T17:26:35.162Z,8.93
2019-02-14T17:29:01.987Z,12.50
2019-02-14T17:31:28.621Z,12.10
2019-02-14T17:33:55.442Z,14.65
2019-02-14T17:36:22.031Z,10.53
2019-02-14T17:38:49.108Z,15.63
2019-02-14T17:41:15.768Z,8.98
2019-02-14T17:43:42.388Z,10.05
2019-02-14T17:46:09.048Z,7.67
2019-02-14T17:48:35.852Z,9.40
2019-02-14T17:51:02.716Z,11.48
2019-02-14T17:53:29.387Z,79.42
2019-02-14T17:55:56.018Z,67.08
2019-02-14T17:58:22.788Z,115.10
2019-02-14T18:00:49.588Z,199.57
2019-02-14T18:03:16.210Z,560.05
2019-02-14T18:05:43.195Z,266.55
2019-02-14T18:08:09.949Z,189.03
2019-02-14T18:10:39.668Z,140.15
2019-02-14T18:13:06.440Z,45.33
2019-02-14T18:15:33.400Z,58.08
2019-02-14T18:18:00.119Z,37.25
2019-02-14T18:20:27.040Z,33.38
2019-02-14T18:22:53.980Z,18.48
2019-02-14T18:25:21.020Z,17.42
2019-02-14T18:27:47.600Z,24.77
2019-02-14T18:30:14.383Z,21.82
2019-02-14T18:32:41.201Z,17.23
2019-02-14T18:35:08.319Z,16.25
2019-02-14T18:37:35.018Z,17.57
2019-02-14T18:40:01.983Z,16.37
2019-02-14T18:42:30.298Z,12.15
2019-02-14T18:44:57.313Z,16.37
2019-02-14T18:47:24.053Z,16.02
2019-02-14T18:49:50.759Z,16.15
2019-02-14T18:52:17.613Z,15.03
2019-02-14T18:54:44.654Z,17.12
2019-02-14T18:57:11.420Z,15.68
2019-02-14T18:59:38.206Z,15.63
2019-02-14T19:02:04.864Z,17.32
2019-02-14T19:04:31.929Z,17.32
2019-02-14T19:06:58.829Z,22.02
2019-02-14T19:09:25.665Z,23.10
2019-02-14T19:11:52.247Z,16.65
2019-02-14T19:14:18.869Z,15.08
2019-02-14T19:16:48.806Z,13.80
2019-02-14T19:19:15.564Z,13.53
2019-02-14T19:21:42.306Z,16.90
2019-02-14T19:24:09.314Z,17.55
2019-02-14T19:26:36.178Z,22.65
2019-02-14T19:29:02.822Z,24.43
2019-02-14T19:31:29.494Z,24.92
2019-02-14T19:33:56.149Z,22.70
2019-02-14T19:36:23.209Z,21.95
2019-02-14T19:38:53.049Z,22.42
2019-02-14T19:41:25.226Z,18.75
2019-02-14T19:43:48.309Z,18.20
2019-02-14T19:46:15.289Z,17.10
2019-02-14T19:48:42.056Z,16.50
2019-02-14T19:51:08.896Z,16.23
2019-02-14T19:53:35.777Z,20.12
2019-02-14T19:56:02.796Z,16.02
2019-02-14T19:58:29.557Z,14.18
2019-02-14T20:00:56.644Z,22.82
2019-02-14T20:03:23.304Z,37.30
2019-02-14T20:05:50.351Z,31.42
2019-02-14T20:08:17.029Z,27.05
2019-02-14T20:10:44.131Z,23.90
2019-02-14T20:13:10.791Z,21.10
2019-02-14T20:15:37.861Z,20.12
2019-02-14T20:18:04.618Z,19.52
2019-02-14T20:20:31.477Z,19.92
2019-02-14T20:22:58.257Z,28.38
2019-02-14T20:25:25.125Z,20.20
2019-02-14T20:27:52.157Z,18.95
2019-02-14T20:30:19.257Z,20.80
2019-02-14T20:32:46.018Z,27.95
2019-02-14T20:35:12.896Z,22.60
2019-02-14T20:37:39.921Z,30.32
2019-02-14T20:40:06.928Z,24.50
2019-02-14T20:42:33.997Z,21.85
2019-02-14T20:45:00.990Z,19.48
2019-02-14T20:47:29.817Z,20.10
2019-02-14T20:49:56.110Z,24.05
2019-02-14T20:52:22.821Z,24.52
2019-02-14T20:54:49.759Z,18.80
2019-02-14T20:57:17.085Z,21.82
2019-02-14T20:59:43.990Z,21.30
2019-02-14T21:02:10.837Z,20.60
2019-02-14T21:04:37.854Z,19.07
2019-02-14T21:07:04.784Z,14.95
2019-02-14T21:09:31.597Z,18.05
2019-02-14T21:11:58.721Z,21.17
2019-02-14T21:14:25.703Z,21.90
2019-02-14T21:16:52.664Z,22.02
2019-02-14T21:19:19.589Z,16.70
2019-02-14T21:21:46.675Z,16.75
2019-02-14T21:24:13.661Z,17.80
2019-02-14T21:26:40.738Z,20.30
2019-02-14T21:29:07.604Z,17.40
2019-02-14T21:31:34.861Z,17.27
2019-02-14T21:34:01.959Z,19.05
2019-02-14T21:36:29.114Z,22.67
2019-02-14T21:38:55.960Z,17.90
2019-02-14T21:41:23.321Z,14.87
2019-02-14T21:43:50.396Z,19.55
2019-02-14T21:46:17.494Z,16.95
2019-02-14T21:48:44.565Z,19.55
2019-02-14T21:51:11.558Z,24.75
2019-02-14T21:53:38.695Z,20.92
2019-02-14T21:56:05.755Z,18.60
2019-02-14T21:58:32.692Z,19.57
2019-02-14T22:00:59.998Z,15.90
2019-02-14T22:03:26.694Z,20.02
2019-02-14T22:05:53.819Z,15.35
2019-02-14T22:08:20.719Z,18.30
2019-02-14T22:10:47.888Z,17.42
2019-02-14T22:13:15.044Z,20.37
2019-02-14T22:15:42.407Z,21.25
2019-02-14T22:18:09.191Z,18.60
2019-02-14T22:20:36.050Z,15.48
2019-02-14T22:23:02.901Z,12.23
2019-02-14T22:25:29.786Z,13.90
2019-02-14T22:27:59.604Z,14.63
2019-02-14T22:30:26.361Z,14.45
2019-02-14T22:32:53.241Z,19.82
2019-02-14T22:35:20.203Z,15.60
2019-02-14T22:37:47.781Z,18.70
2019-02-14T22:40:14.534Z,24.37
2019-02-14T22:42:47.266Z,24.75
2019-02-14T22:45:10.480Z,21.85
2019-02-14T22:47:46.767Z,30.82
2019-02-14T22:50:13.672Z,18.70
2019-02-14T22:52:40.471Z,21.48
2019-02-14T22:55:07.390Z,16.95
2019-02-14T22:57:34.459Z,17.77
2019-02-14T23:00:05.372Z,17.70
2019-02-14T23:02:30.339Z,15.28
2019-02-14T23:04:57.002Z,15.55
2019-02-14T23:07:23.659Z,16.12
2019-02-14T23:09:50.526Z,17.35
2019-02-14T23:12:17.495Z,20.30
2019-02-14T23:14:44.592Z,13.35
2019-02-14T23:17:11.424Z,14.00
2019-02-14T23:19:38.190Z,15.08
2019-02-14T23:22:04.933Z,14.15
2019-02-14T23:24:31.604Z,14.90
2019-02-14T23:26:58.481Z,16.55
2019-02-14T23:29:24.965Z,18.85
2019-02-14T23:31:51.685Z,12.20
2019-02-14T23:34:18.323Z,15.20
2019-02-14T23:36:45.096Z,14.55
2019-02-14T23:39:11.743Z,17.95
2019-02-14T23:41:38.397Z,18.10
2019-02-14T23:44:04.971Z,15.08
2019-02-14T23:46:31.595Z,15.95
2019-02-14T23:48:58.124Z,16.42
2019-02-14T23:51:24.768Z,16.45
2019-02-14T23:53:51.463Z,20.25
2019-02-14T23:56:18.052Z,10.78
2019-02-14T23:58:44.704Z,14.05
